createdAt,value
2017-07-29T00:00:25.547Z,0
2017-07-29T00:01:25.288Z,0
2017-07-29T00:02:25.663Z,0
2017-07-29T00:03:25.701Z,0
2017-07-29T00:04:25.760Z,0
2017-07-29T00:05:25.813Z,0
2017-07-29T00:06:25.873Z,0
2017-07-29T00:07:25.924Z,0
2017-07-29T00:08:25.976Z,0
2017-07-29T00:09:26.033Z,0
2017-07-29T00:10:26.087Z,0
2017-07-29T00:11:26.139Z,0
2017-07-29T00:12:26.205Z,0
2017-07-29T00:13:26.244Z,0
2017-07-29T00:14:26.303Z,0
2017-07-29T00:15:26.355Z,0
2017-07-29T00:16:26.409Z,0
2017-07-29T00:17:26.470Z,0
2017-07-29T00:18:26.516Z,0
2017-07-29T00:19:26.270Z,0
2017-07-29T00:20:26.616Z,0
2017-07-29T00:21:26.388Z,0
2017-07-29T00:22:26.726Z,0
2017-07-29T00:23:26.802Z,0
2017-07-29T00:24:26.835Z,0
2017-07-29T00:25:26.892Z,0
2017-07-29T00:26:26.953Z,0
2017-07-29T00:27:26.999Z,0
2017-07-29T00:28:27.059Z,0
2017-07-29T00:29:27.119Z,0
2017-07-29T00:30:27.164Z,0
2017-07-29T00:31:27.215Z,0
2017-07-29T00:32:27.271Z,0
2017-07-29T00:33:27.331Z,0
2017-07-29T00:34:27.390Z,0
2017-07-29T00:35:27.441Z,0
2017-07-29T00:36:27.499Z,0
2017-07-29T00:37:27.560Z,0
2017-07-29T00:38:27.611Z,0
2017-07-29T00:39:27.660Z,0
2017-07-29T00:40:27.719Z,0
2017-07-29T00:41:27.767Z,0
2017-07-29T00:42:27.833Z,0
2017-07-29T00:43:27.567Z,0
2017-07-29T00:44:27.625Z,0
2017-07-29T00:45:27.680Z,0
2017-07-29T00:46:27.731Z,0
2017-07-29T00:47:28.091Z,0
2017-07-29T00:48:27.845Z,0
2017-07-29T00:49:28.208Z,0
2017-07-29T00:50:28.252Z,0
2017-07-29T00:51:28.320Z,0
2017-07-29T00:52:28.362Z,0
2017-07-29T00:53:28.431Z,0
2017-07-29T00:54:28.466Z,0
2017-07-29T00:55:28.531Z,0
2017-07-29T00:56:28.589Z,0
2017-07-29T00:57:28.642Z,0
2017-07-29T00:58:28.679Z,0
2017-07-29T00:59:28.734Z,0
2017-07-29T01:00:28.800Z,0
2017-07-29T01:01:28.867Z,0
2017-07-29T01:02:28.911Z,0
2017-07-29T01:03:28.963Z,0
2017-07-29T01:04:29.032Z,0
2017-07-29T01:05:29.084Z,0
2017-07-29T01:06:29.124Z,0
2017-07-29T01:07:29.193Z,0
2017-07-29T01:08:29.244Z,0
2017-07-29T01:09:29.293Z,0
2017-07-29T01:10:29.345Z,0
2017-07-29T01:11:29.394Z,0
2017-07-29T01:12:29.455Z,0
2017-07-29T01:13:29.512Z,0
2017-07-29T01:14:29.552Z,0
2017-07-29T01:15:29.616Z,0
2017-07-29T01:16:29.669Z,0
2017-07-29T01:17:29.726Z,0
2017-07-29T01:18:29.781Z,0
2017-07-29T01:19:29.835Z,0
2017-07-29T01:20:29.888Z,0
2017-07-29T01:21:29.945Z,0
2017-07-29T01:22:30.007Z,0
2017-07-29T01:23:30.053Z,0
2017-07-29T01:24:30.102Z,0
2017-07-29T01:25:30.162Z,0
2017-07-29T01:26:30.216Z,0
2017-07-29T01:27:30.265Z,0
2017-07-29T01:28:30.331Z,0
2017-07-29T01:29:30.379Z,0
2017-07-29T01:30:30.429Z,0
2017-07-29T01:31:30.476Z,0
2017-07-29T01:32:30.230Z,0
2017-07-29T01:33:30.584Z,0
2017-07-29T01:34:30.648Z,0
2017-07-29T01:35:30.406Z,0
2017-07-29T01:36:30.771Z,0
2017-07-29T01:37:30.508Z,0
2017-07-29T01:38:30.865Z,0
2017-07-29T01:39:30.917Z,0
2017-07-29T01:40:30.978Z,0
2017-07-29T01:41:31.030Z,0
2017-07-29T01:42:31.083Z,0
2017-07-29T01:43:31.130Z,0
2017-07-29T01:44:31.194Z,0
2017-07-29T01:45:31.240Z,0
2017-07-29T01:46:31.291Z,0
2017-07-29T01:47:31.352Z,0
2017-07-29T01:48:31.409Z,0
2017-07-29T01:49:31.465Z,0
2017-07-29T01:50:31.526Z,0
2017-07-29T01:51:31.572Z,0
2017-07-29T01:52:31.632Z,0
2017-07-29T01:53:31.688Z,0
2017-07-29T01:54:31.734Z,0
2017-07-29T01:55:31.789Z,0
2017-07-29T01:56:31.834Z,0
2017-07-29T01:57:31.588Z,0
2017-07-29T01:58:31.958Z,0
2017-07-29T01:59:32.021Z,0
2017-07-29T02:00:31.759Z,0
2017-07-29T02:01:32.110Z,0
2017-07-29T02:02:32.168Z,0
2017-07-29T02:03:31.915Z,0
2017-07-29T02:04:32.282Z,0
2017-07-29T02:05:32.351Z,0
2017-07-29T02:06:32.383Z,0
2017-07-29T02:07:32.437Z,0
2017-07-29T02:08:32.189Z,0
2017-07-29T02:09:32.546Z,0
2017-07-29T02:10:32.603Z,0
2017-07-29T02:11:32.655Z,0
2017-07-29T02:12:32.714Z,0
2017-07-29T02:13:32.459Z,0
2017-07-29T02:14:32.514Z,0
2017-07-29T02:15:32.879Z,0
2017-07-29T02:16:32.937Z,0
2017-07-29T02:17:32.976Z,0
2017-07-29T02:18:33.045Z,0
2017-07-29T02:19:33.095Z,0
2017-07-29T02:20:33.141Z,0
2017-07-29T02:21:33.199Z,0
2017-07-29T02:22:33.243Z,0
2017-07-29T02:23:33.301Z,0
2017-07-29T02:24:33.363Z,0
2017-07-29T02:25:33.410Z,0
2017-07-29T02:26:33.467Z,0
2017-07-29T02:27:33.228Z,0
2017-07-29T02:28:33.590Z,0
2017-07-29T02:29:33.627Z,0
2017-07-29T02:30:33.691Z,0
2017-07-29T02:31:33.435Z,0
2017-07-29T02:32:33.798Z,0
2017-07-29T02:33:33.850Z,0
2017-07-29T02:34:33.902Z,0
2017-07-29T02:35:33.971Z,0
2017-07-29T02:36:34.007Z,0
2017-07-29T02:37:34.065Z,0
2017-07-29T02:38:34.125Z,0
2017-07-29T02:39:34.193Z,0
2017-07-29T02:40:34.242Z,0
2017-07-29T02:41:34.285Z,0
2017-07-29T02:42:34.352Z,0
2017-07-29T02:43:34.091Z,0
2017-07-29T02:44:34.136Z,0
2017-07-29T02:45:34.540Z,0
2017-07-29T02:46:34.555Z,0
2017-07-29T02:47:34.614Z,0
2017-07-29T02:48:34.364Z,0
2017-07-29T02:49:34.720Z,0
2017-07-29T02:50:34.781Z,0
2017-07-29T02:51:34.829Z,0
2017-07-29T02:52:34.891Z,0
2017-07-29T02:53:34.949Z,0
2017-07-29T02:54:34.989Z,0
2017-07-29T02:55:35.041Z,0
2017-07-29T02:56:35.122Z,0
2017-07-29T02:57:35.159Z,0
2017-07-29T02:58:35.230Z,0
2017-07-29T02:59:35.260Z,0
2017-07-29T03:00:35.325Z,0
2017-07-29T03:01:35.384Z,0
2017-07-29T03:02:35.437Z,0
2017-07-29T03:03:35.483Z,0
2017-07-29T03:04:35.541Z,0
2017-07-29T03:05:35.591Z,0
2017-07-29T03:06:35.652Z,0
2017-07-29T03:07:35.399Z,0
2017-07-29T03:08:35.757Z,0
2017-07-29T03:09:35.519Z,0
2017-07-29T03:10:35.558Z,0
2017-07-29T03:11:35.919Z,0
2017-07-29T03:12:35.660Z,0
2017-07-29T03:13:36.025Z,0
2017-07-29T03:14:36.087Z,0
2017-07-29T03:15:36.137Z,0
2017-07-29T03:16:35.894Z,0
2017-07-29T03:17:36.238Z,0
2017-07-29T03:18:36.299Z,0
2017-07-29T03:19:36.041Z,0
2017-07-29T03:20:35.799Z,0
2017-07-29T03:21:36.163Z,0
2017-07-29T03:22:36.209Z,0
2017-07-29T03:23:36.578Z,0
2017-07-29T03:24:36.632Z,0
2017-07-29T03:25:36.694Z,0
2017-07-29T03:26:36.424Z,0
2017-07-29T03:27:36.479Z,0
2017-07-29T03:28:36.850Z,0
2017-07-29T03:29:36.894Z,0
2017-07-29T03:30:36.960Z,0
2017-07-29T03:31:36.997Z,0
2017-07-29T03:32:37.073Z,0
2017-07-29T03:33:37.117Z,0
2017-07-29T03:34:37.162Z,0
2017-07-29T03:35:37.225Z,4
2017-07-29T03:36:37.279Z,4
2017-07-29T03:37:37.329Z,4
2017-07-29T03:38:37.381Z,4
2017-07-29T03:39:37.439Z,4
2017-07-29T03:40:37.486Z,0
2017-07-29T03:41:37.553Z,4
2017-07-29T03:42:37.603Z,4
2017-07-29T03:43:37.644Z,4
2017-07-29T03:44:37.707Z,4
2017-07-29T03:45:37.765Z,8
2017-07-29T03:46:37.812Z,4
2017-07-29T03:47:37.882Z,4
2017-07-29T03:48:37.922Z,8
2017-07-29T03:49:37.974Z,8
2017-07-29T03:50:38.034Z,8
2017-07-29T03:51:38.092Z,8
2017-07-29T03:52:38.146Z,8
2017-07-29T03:53:37.884Z,12
2017-07-29T03:54:38.245Z,8
2017-07-29T03:55:38.303Z,12
2017-07-29T03:56:38.368Z,16
2017-07-29T03:57:38.119Z,12
2017-07-29T03:58:38.156Z,12
2017-07-29T03:59:38.531Z,16
2017-07-29T04:00:38.584Z,16
2017-07-29T04:01:38.320Z,16
2017-07-29T04:02:38.382Z,20
2017-07-29T04:03:38.432Z,20
2017-07-29T04:04:38.801Z,20
2017-07-29T04:05:38.857Z,24
2017-07-29T04:06:38.604Z,24
2017-07-29T04:07:38.967Z,28
2017-07-29T04:08:39.018Z,28
2017-07-29T04:09:39.057Z,28
2017-07-29T04:10:39.110Z,32
2017-07-29T04:11:38.875Z,32
2017-07-29T04:12:39.226Z,36
2017-07-29T04:13:38.983Z,36
2017-07-29T04:14:39.333Z,40
2017-07-29T04:15:39.079Z,44
2017-07-29T04:16:39.454Z,44
2017-07-29T04:17:39.503Z,48
2017-07-29T04:18:39.557Z,48
2017-07-29T04:19:39.619Z,52
2017-07-29T04:20:39.662Z,52
2017-07-29T04:21:39.709Z,56
2017-07-29T04:22:39.776Z,56
2017-07-29T04:23:39.518Z,64
2017-07-29T04:24:39.869Z,64
2017-07-29T04:25:39.927Z,64
2017-07-29T04:26:39.686Z,64
2017-07-29T04:27:39.738Z,72
2017-07-29T04:28:40.105Z,72
2017-07-29T04:29:40.148Z,72
2017-07-29T04:30:39.894Z,72
2017-07-29T04:31:40.268Z,68
2017-07-29T04:32:40.318Z,76
2017-07-29T04:33:40.374Z,76
2017-07-29T04:34:40.422Z,80
2017-07-29T04:35:40.175Z,84
2017-07-29T04:36:40.740Z,88
2017-07-29T04:37:40.585Z,92
2017-07-29T04:38:40.642Z,100
2017-07-29T04:39:40.692Z,100
2017-07-29T04:40:40.739Z,104
2017-07-29T04:41:40.806Z,104
2017-07-29T04:42:40.846Z,108
2017-07-29T04:43:40.910Z,108
2017-07-29T04:44:40.953Z,112
2017-07-29T04:45:41.011Z,116
2017-07-29T04:46:41.070Z,116
2017-07-29T04:47:41.124Z,120
2017-07-29T04:48:41.185Z,128
2017-07-29T04:49:41.237Z,132
2017-07-29T04:50:41.294Z,128
2017-07-29T04:51:41.340Z,128
2017-07-29T04:52:41.392Z,144
2017-07-29T04:53:41.452Z,160
2017-07-29T04:54:41.504Z,176
2017-07-29T04:55:41.552Z,180
2017-07-29T04:56:41.305Z,184
2017-07-29T04:57:41.669Z,168
2017-07-29T04:58:41.725Z,152
2017-07-29T04:59:41.486Z,140
2017-07-29T05:00:41.830Z,136
2017-07-29T05:01:41.904Z,184
2017-07-29T05:02:41.929Z,236
2017-07-29T05:03:41.993Z,256
2017-07-29T05:04:42.045Z,248
2017-07-29T05:05:42.097Z,248
2017-07-29T05:06:42.166Z,252
2017-07-29T05:07:42.225Z,276
2017-07-29T05:08:42.269Z,304
2017-07-29T05:09:42.319Z,316
2017-07-29T05:10:42.385Z,320
2017-07-29T05:11:42.446Z,320
2017-07-29T05:12:42.480Z,316
2017-07-29T05:13:42.730Z,312
2017-07-29T05:14:42.589Z,292
2017-07-29T05:15:57.273Z,280
2017-07-29T05:16:42.699Z,276
2017-07-29T05:17:42.742Z,276
2017-07-29T05:18:42.814Z,288
2017-07-29T05:19:43.065Z,300
2017-07-29T05:20:42.915Z,304
2017-07-29T05:21:42.975Z,300
2017-07-29T05:22:43.027Z,288
2017-07-29T05:23:43.089Z,288
2017-07-29T05:24:43.144Z,288
2017-07-29T05:25:43.184Z,304
2017-07-29T05:26:42.942Z,324
2017-07-29T05:27:43.290Z,336
2017-07-29T05:28:43.366Z,344
2017-07-29T05:29:43.407Z,336
2017-07-29T05:30:43.461Z,328
2017-07-29T05:31:43.524Z,344
2017-07-29T05:32:43.573Z,360
2017-07-29T05:33:43.626Z,360
2017-07-29T05:34:43.691Z,356
2017-07-29T05:35:43.731Z,348
2017-07-29T05:36:43.780Z,380
2017-07-29T05:37:43.843Z,404
2017-07-29T05:38:43.892Z,416
2017-07-29T05:39:43.952Z,428
2017-07-29T05:40:44.006Z,432
2017-07-29T05:41:44.064Z,432
2017-07-29T05:42:43.803Z,444
2017-07-29T05:43:44.171Z,480
2017-07-29T05:44:44.210Z,516
2017-07-29T05:45:44.285Z,528
2017-07-29T05:46:44.538Z,532
2017-07-29T05:47:44.075Z,528
2017-07-29T05:48:44.132Z,528
2017-07-29T05:49:44.495Z,528
2017-07-29T05:50:44.550Z,536
2017-07-29T05:51:44.802Z,524
2017-07-29T05:52:44.656Z,492
2017-07-29T05:53:44.711Z,520
2017-07-29T05:54:44.772Z,524
2017-07-29T05:55:44.829Z,532
2017-07-29T05:56:44.877Z,572
2017-07-29T05:57:58.559Z,600
2017-07-29T05:58:44.974Z,600
2017-07-29T05:59:44.731Z,568
2017-07-29T06:00:44.781Z,576
2017-07-29T06:01:44.850Z,584
2017-07-29T06:02:45.205Z,564
2017-07-29T06:03:45.253Z,508
2017-07-29T06:04:45.322Z,556
2017-07-29T06:05:45.363Z,596
2017-07-29T06:06:45.416Z,600
2017-07-29T06:07:45.481Z,516
2017-07-29T06:08:45.530Z,572
2017-07-29T06:09:45.579Z,592
2017-07-29T06:10:45.627Z,580
2017-07-29T06:11:45.699Z,516
2017-07-29T06:12:45.745Z,612
2017-07-29T06:13:45.806Z,496
2017-07-29T06:14:45.857Z,524
2017-07-29T06:15:45.911Z,552
2017-07-29T06:16:45.954Z,608
2017-07-29T06:17:46.016Z,592
2017-07-29T06:18:46.074Z,540
2017-07-29T06:19:45.820Z,664
2017-07-29T06:20:46.178Z,584
2017-07-29T06:21:46.231Z,544
2017-07-29T06:22:46.284Z,640
2017-07-29T06:23:46.345Z,688
2017-07-29T06:24:46.402Z,548
2017-07-29T06:25:46.451Z,656
2017-07-29T06:26:46.510Z,540
2017-07-29T06:27:46.563Z,652
2017-07-29T06:28:46.621Z,640
2017-07-29T06:30:00.560Z,600
2017-07-29T06:30:46.417Z,580
2017-07-29T06:31:46.985Z,628
2017-07-29T06:32:46.528Z,616
2017-07-29T06:33:46.889Z,596
2017-07-29T06:34:46.939Z,600
2017-07-29T06:35:47.004Z,592
2017-07-29T06:36:47.258Z,600
2017-07-29T06:37:47.106Z,596
2017-07-29T06:38:47.164Z,580
2017-07-29T06:39:47.214Z,572
2017-07-29T06:40:46.958Z,580
2017-07-29T06:41:47.309Z,592
2017-07-29T06:42:47.384Z,580
2017-07-29T06:43:47.132Z,596
2017-07-29T06:44:47.492Z,620
2017-07-29T06:45:47.530Z,632
2017-07-29T06:46:47.601Z,620
2017-07-29T06:47:47.646Z,600
2017-07-29T06:48:47.715Z,580
2017-07-29T06:49:47.754Z,576
2017-07-29T06:50:47.805Z,584
2017-07-29T06:51:47.568Z,584
2017-07-29T06:52:47.920Z,588
2017-07-29T06:53:47.666Z,584
2017-07-29T06:54:47.722Z,584
2017-07-29T06:55:48.082Z,592
2017-07-29T06:56:48.144Z,616
2017-07-29T06:57:48.203Z,608
2017-07-29T06:58:48.248Z,612
2017-07-29T06:59:48.299Z,636
2017-07-29T07:00:48.354Z,656
2017-07-29T07:01:48.418Z,656
2017-07-29T07:02:48.457Z,668
2017-07-29T07:03:48.521Z,652
2017-07-29T07:04:48.589Z,568
2017-07-29T07:05:49.061Z,624
2017-07-29T07:06:48.682Z,616
2017-07-29T07:07:48.737Z,616
2017-07-29T07:08:48.799Z,624
2017-07-29T07:09:49.048Z,628
2017-07-29T07:10:48.908Z,632
2017-07-29T07:11:48.954Z,632
2017-07-29T07:12:49.006Z,632
2017-07-29T07:13:49.058Z,628
2017-07-29T07:14:49.121Z,628
2017-07-29T07:15:49.397Z,632
2017-07-29T07:16:49.221Z,636
2017-07-29T07:17:49.288Z,636
2017-07-29T07:18:49.332Z,636
2017-07-29T07:19:49.384Z,636
2017-07-29T07:20:49.453Z,644
2017-07-29T07:21:49.200Z,656
2017-07-29T07:22:49.561Z,660
2017-07-29T07:23:49.621Z,660
2017-07-29T07:24:49.678Z,660
2017-07-29T07:25:49.721Z,656
2017-07-29T07:26:49.781Z,664
2017-07-29T07:27:49.827Z,660
2017-07-29T07:28:49.889Z,664
2017-07-29T07:29:49.948Z,664
2017-07-29T07:30:49.703Z,664
2017-07-29T07:31:50.052Z,672
2017-07-29T07:32:50.107Z,672
2017-07-29T07:33:50.155Z,672
2017-07-29T07:34:50.215Z,676
2017-07-29T07:35:50.271Z,680
2017-07-29T07:36:50.320Z,680
2017-07-29T07:37:50.381Z,684
2017-07-29T07:38:50.436Z,688
2017-07-29T07:39:50.686Z,688
2017-07-29T07:40:50.542Z,692
2017-07-29T07:41:50.587Z,696
2017-07-29T07:42:50.646Z,700
2017-07-29T07:43:50.928Z,704
2017-07-29T07:44:50.780Z,704
2017-07-29T07:45:50.821Z,708
2017-07-29T07:46:50.869Z,712
2017-07-29T07:47:50.926Z,712
2017-07-29T07:48:51.195Z,716
2017-07-29T07:49:51.256Z,724
2017-07-29T07:50:51.091Z,724
2017-07-29T07:51:50.837Z,728
2017-07-29T07:52:51.193Z,732
2017-07-29T07:53:51.254Z,736
2017-07-29T07:55:05.198Z,744
2017-07-29T07:55:51.058Z,744
2017-07-29T07:56:51.411Z,744
2017-07-29T07:57:51.458Z,752
2017-07-29T07:58:51.532Z,752
2017-07-29T07:59:51.580Z,760
2017-07-29T08:00:51.631Z,760
2017-07-29T08:01:51.686Z,764
2017-07-29T08:02:51.736Z,768
2017-07-29T08:03:51.793Z,768
2017-07-29T08:04:51.854Z,776
2017-07-29T08:05:51.931Z,780
2017-07-29T08:06:51.959Z,784
2017-07-29T08:07:52.009Z,784
2017-07-29T08:08:52.092Z,788
2017-07-29T08:09:52.129Z,788
2017-07-29T08:10:52.166Z,788
2017-07-29T08:11:52.227Z,796
2017-07-29T08:12:52.283Z,796
2017-07-29T08:13:52.339Z,796
2017-07-29T08:14:52.398Z,800
2017-07-29T08:15:52.451Z,804
2017-07-29T08:16:52.520Z,808
2017-07-29T08:17:52.561Z,808
2017-07-29T08:18:52.619Z,812
2017-07-29T08:19:52.663Z,816
2017-07-29T08:20:52.729Z,816
2017-07-29T08:21:52.772Z,820
2017-07-29T08:22:52.522Z,824
2017-07-29T08:23:52.883Z,828
2017-07-29T08:24:52.628Z,828
2017-07-29T08:25:52.691Z,832
2017-07-29T08:26:52.740Z,836
2017-07-29T08:27:53.103Z,840
2017-07-29T08:28:52.860Z,840
2017-07-29T08:29:53.404Z,844
2017-07-29T08:30:53.262Z,848
2017-07-29T08:31:53.324Z,848
2017-07-29T08:32:53.375Z,852
2017-07-29T08:33:53.428Z,860
2017-07-29T08:35:07.118Z,864
2017-07-29T08:35:53.537Z,864
2017-07-29T08:36:53.583Z,868
2017-07-29T08:37:53.653Z,868
2017-07-29T08:38:53.689Z,872
2017-07-29T08:39:53.747Z,876
2017-07-29T08:40:53.815Z,880
2017-07-29T08:41:53.550Z,884
2017-07-29T08:42:53.921Z,888
2017-07-29T08:43:53.958Z,888
2017-07-29T08:44:54.017Z,892
2017-07-29T08:45:53.775Z,900
2017-07-29T08:46:54.139Z,900
2017-07-29T08:47:53.891Z,900
2017-07-29T08:48:54.254Z,908
2017-07-29T08:49:54.297Z,912
2017-07-29T08:50:54.353Z,912
2017-07-29T08:51:54.397Z,916
2017-07-29T08:52:54.460Z,924
2017-07-29T08:53:54.210Z,924
2017-07-29T08:54:54.575Z,928
2017-07-29T08:55:54.623Z,932
2017-07-29T08:56:54.368Z,936
2017-07-29T08:57:54.415Z,940
2017-07-29T08:58:54.778Z,944
2017-07-29T08:59:54.845Z,948
2017-07-29T09:00:54.903Z,948
2017-07-29T09:01:54.961Z,952
2017-07-29T09:02:55.004Z,952
2017-07-29T09:03:54.751Z,956
2017-07-29T09:04:55.108Z,960
2017-07-29T09:05:55.161Z,964
2017-07-29T09:06:55.217Z,968
2017-07-29T09:07:54.960Z,972
2017-07-29T09:08:55.318Z,972
2017-07-29T09:09:55.379Z,980
2017-07-29T09:10:55.445Z,984
2017-07-29T09:11:55.481Z,984
2017-07-29T09:12:55.554Z,988
2017-07-29T09:13:55.293Z,992
2017-07-29T09:14:55.354Z,996
2017-07-29T09:15:55.707Z,1004
2017-07-29T09:16:55.461Z,1008
2017-07-29T09:17:55.824Z,1008
2017-07-29T09:18:55.866Z,1016
2017-07-29T09:19:55.614Z,1020
2017-07-29T09:20:55.980Z,1028
2017-07-29T09:21:56.037Z,1036
2017-07-29T09:22:55.793Z,1040
2017-07-29T09:23:56.157Z,1048
2017-07-29T09:24:56.209Z,1060
2017-07-29T09:25:56.242Z,1068
2017-07-29T09:26:56.314Z,1080
2017-07-29T09:27:56.350Z,1100
2017-07-29T09:28:56.415Z,1120
2017-07-29T09:29:56.476Z,1132
2017-07-29T09:30:56.518Z,1152
2017-07-29T09:31:56.586Z,1148
2017-07-29T09:32:56.635Z,1180
2017-07-29T09:33:56.390Z,1036
2017-07-29T09:34:56.738Z,1096
2017-07-29T09:35:56.803Z,1072
2017-07-29T09:36:56.850Z,1240
2017-07-29T09:37:56.904Z,1280
2017-07-29T09:38:56.950Z,1280
2017-07-29T09:39:57.017Z,1324
2017-07-29T09:40:57.067Z,1212
2017-07-29T09:41:56.514Z,1332
2017-07-29T09:42:57.181Z,1404
2017-07-29T09:43:56.922Z,1352
2017-07-29T09:44:56.981Z,1436
2017-07-29T09:45:57.338Z,1240
2017-07-29T09:46:56.795Z,1332
2017-07-29T09:47:57.149Z,1068
2017-07-29T09:48:57.503Z,1188
2017-07-29T09:49:57.553Z,1028
2017-07-29T09:50:57.310Z,1184
2017-07-29T09:51:57.663Z,1380
2017-07-29T09:52:57.415Z,1320
2017-07-29T09:53:57.772Z,1156
2017-07-29T09:54:57.827Z,992
2017-07-29T09:55:57.588Z,1112
2017-07-29T09:56:57.629Z,1452
2017-07-29T09:57:58.004Z,1444
2017-07-29T09:58:57.745Z,1352
2017-07-29T09:59:57.805Z,1148
2017-07-29T10:00:58.176Z,1012
2017-07-29T10:01:58.211Z,780
2017-07-29T10:02:57.961Z,760
2017-07-29T10:03:58.322Z,776
2017-07-29T10:04:58.078Z,648
2017-07-29T10:05:58.444Z,632
2017-07-29T10:06:58.185Z,952
2017-07-29T10:07:58.550Z,1036
2017-07-29T10:08:58.299Z,1392
2017-07-29T10:09:58.655Z,1412
2017-07-29T10:10:58.710Z,1152
2017-07-29T10:11:58.766Z,1072
2017-07-29T10:12:58.811Z,996
2017-07-29T10:13:58.886Z,1080
2017-07-29T10:14:58.632Z,1340
2017-07-29T10:15:58.990Z,1244
2017-07-29T10:16:58.733Z,1180
2017-07-29T10:17:59.089Z,1096
2017-07-29T10:18:59.157Z,692
2017-07-29T10:19:59.209Z,1048
2017-07-29T10:20:58.965Z,1272
2017-07-29T10:21:59.315Z,1304
2017-07-29T10:22:59.381Z,1296
2017-07-29T10:23:59.427Z,1284
2017-07-29T10:24:59.173Z,1280
2017-07-29T10:25:59.535Z,1280
2017-07-29T10:26:59.293Z,1276
2017-07-29T10:27:59.649Z,1284
2017-07-29T10:28:59.702Z,1296
2017-07-29T10:29:59.756Z,1320
2017-07-29T10:30:59.810Z,1248
2017-07-29T10:31:59.871Z,1300
2017-07-29T10:32:59.921Z,940
2017-07-29T10:33:59.975Z,984
2017-07-29T10:34:59.736Z,1120
2017-07-29T10:36:00.104Z,1300
2017-07-29T10:37:00.154Z,1328
2017-07-29T10:38:00.209Z,1324
2017-07-29T10:39:00.251Z,1304
2017-07-29T10:40:00.314Z,1316
2017-07-29T10:41:00.372Z,1316
2017-07-29T10:42:00.417Z,1320
2017-07-29T10:43:00.479Z,1324
2017-07-29T10:44:00.535Z,1324
2017-07-29T10:45:00.583Z,1340
2017-07-29T10:46:00.638Z,1344
2017-07-29T10:47:00.693Z,1352
2017-07-29T10:48:00.752Z,1360
2017-07-29T10:49:00.807Z,1376
2017-07-29T10:50:00.873Z,1392
2017-07-29T10:51:00.914Z,1412
2017-07-29T10:52:00.970Z,1420
2017-07-29T10:53:01.027Z,1364
2017-07-29T10:54:01.075Z,1328
2017-07-29T10:55:01.141Z,1272
2017-07-29T10:56:01.199Z,1264
2017-07-29T10:57:01.242Z,1312
2017-07-29T10:58:01.298Z,1204
2017-07-29T10:59:01.357Z,1372
2017-07-29T11:00:01.425Z,1160
2017-07-29T11:01:01.472Z,1016
2017-07-29T11:02:01.213Z,1528
2017-07-29T11:03:01.574Z,1684
2017-07-29T11:04:01.634Z,1636
2017-07-29T11:05:01.386Z,1416
2017-07-29T11:06:01.750Z,1416
2017-07-29T11:07:01.797Z,1212
2017-07-29T11:08:01.861Z,1244
2017-07-29T11:09:01.612Z,1220
2017-07-29T11:10:01.965Z,1268
2017-07-29T11:11:02.021Z,1284
2017-07-29T11:12:02.089Z,1336
2017-07-29T11:13:02.128Z,1260
2017-07-29T11:14:02.179Z,1068
2017-07-29T11:15:02.259Z,972
2017-07-29T11:16:02.302Z,848
2017-07-29T11:17:02.346Z,820
2017-07-29T11:18:02.413Z,732
2017-07-29T11:19:02.464Z,768
2017-07-29T11:20:02.514Z,820
2017-07-29T11:21:02.567Z,600
2017-07-29T11:22:02.634Z,588
2017-07-29T11:23:02.378Z,624
2017-07-29T11:24:02.734Z,680
2017-07-29T11:25:02.493Z,740
2017-07-29T11:26:02.849Z,864
2017-07-29T11:27:02.903Z,908
2017-07-29T11:28:02.958Z,920
2017-07-29T11:29:02.749Z,932
2017-07-29T11:30:02.770Z,944
2017-07-29T11:31:03.121Z,1092
2017-07-29T11:32:02.876Z,1316
2017-07-29T11:33:02.942Z,1292
2017-07-29T11:34:03.294Z,1192
2017-07-29T11:35:03.344Z,1216
2017-07-29T11:36:03.091Z,1112
2017-07-29T11:37:03.456Z,1052
2017-07-29T11:38:03.508Z,1000
2017-07-29T11:39:03.576Z,1020
2017-07-29T11:40:03.622Z,1180
2017-07-29T11:41:03.684Z,1620
2017-07-29T11:42:03.733Z,1288
2017-07-29T11:43:03.489Z,1740
2017-07-29T11:44:03.843Z,1296
2017-07-29T11:45:03.898Z,1132
2017-07-29T11:46:03.968Z,1132
2017-07-29T11:47:04.040Z,1496
2017-07-29T11:48:04.066Z,1480
2017-07-29T11:49:04.120Z,1684
2017-07-29T11:50:04.176Z,1712
2017-07-29T11:51:03.928Z,2400
2017-07-29T11:52:04.287Z,1676
2017-07-29T11:53:04.344Z,1936
2017-07-29T11:54:04.394Z,1428
2017-07-29T11:55:04.153Z,1344
2017-07-29T11:56:04.200Z,1540
2017-07-29T11:57:04.554Z,1764
2017-07-29T11:58:04.611Z,1832
2017-07-29T11:59:04.701Z,1700
2017-07-29T12:00:04.423Z,1828
2017-07-29T12:01:04.780Z,1800
2017-07-29T12:02:04.839Z,1452
2017-07-29T12:03:04.911Z,1372
2017-07-29T12:04:04.947Z,1160
2017-07-29T12:05:05.001Z,1060
2017-07-29T12:06:04.755Z,832
2017-07-29T12:07:05.120Z,784
2017-07-29T12:08:05.169Z,804
2017-07-29T12:09:05.216Z,860
2017-07-29T12:10:04.980Z,912
2017-07-29T12:11:04.719Z,980
2017-07-29T12:12:05.382Z,896
2017-07-29T12:13:05.443Z,796
2017-07-29T12:14:05.192Z,772
2017-07-29T12:15:05.262Z,740
2017-07-29T12:16:05.607Z,728
2017-07-29T12:17:05.666Z,708
2017-07-29T12:18:05.723Z,684
2017-07-29T12:19:05.768Z,660
2017-07-29T12:20:05.845Z,640
2017-07-29T12:21:05.897Z,636
2017-07-29T12:22:05.639Z,632
2017-07-29T12:23:05.382Z,632
2017-07-29T12:24:06.044Z,624
2017-07-29T12:25:06.107Z,632
2017-07-29T12:26:06.163Z,652
2017-07-29T12:27:06.216Z,688
2017-07-29T12:28:06.301Z,724
2017-07-29T12:29:06.335Z,764
2017-07-29T12:30:06.115Z,784
2017-07-29T12:31:06.451Z,756
2017-07-29T12:32:06.496Z,748
2017-07-29T12:33:06.241Z,748
2017-07-29T12:34:06.606Z,740
2017-07-29T12:35:06.660Z,744
2017-07-29T12:36:06.416Z,728
2017-07-29T12:37:06.773Z,684
2017-07-29T12:38:06.821Z,656
2017-07-29T12:39:06.915Z,664
2017-07-29T12:40:06.924Z,676
2017-07-29T12:41:06.989Z,688
2017-07-29T12:42:07.050Z,716
2017-07-29T12:43:07.098Z,748
2017-07-29T12:44:07.152Z,812
2017-07-29T12:45:07.212Z,892
2017-07-29T12:46:07.272Z,924
2017-07-29T12:47:07.317Z,920
2017-07-29T12:48:07.379Z,832
2017-07-29T12:49:07.423Z,800
2017-07-29T12:50:07.176Z,836
2017-07-29T12:51:07.533Z,876
2017-07-29T12:52:07.305Z,940
2017-07-29T12:53:07.668Z,1020
2017-07-29T12:54:07.403Z,1092
2017-07-29T12:55:07.455Z,1196
2017-07-29T12:56:07.505Z,1428
2017-07-29T12:57:07.874Z,1480
2017-07-29T12:58:07.926Z,1500
2017-07-29T12:59:07.977Z,1600
2017-07-29T13:00:07.734Z,1560
2017-07-29T13:01:08.096Z,1236
2017-07-29T13:02:08.151Z,1640
2017-07-29T13:03:08.195Z,1552
2017-07-29T13:04:08.253Z,1500
2017-07-29T13:05:07.700Z,1580
2017-07-29T13:06:08.068Z,1536
2017-07-29T13:07:08.127Z,1352
2017-07-29T13:08:08.487Z,1216
2017-07-29T13:09:08.237Z,1192
2017-07-29T13:10:08.279Z,1212
2017-07-29T13:11:08.652Z,1244
2017-07-29T13:12:08.397Z,1316
2017-07-29T13:13:08.755Z,1356
2017-07-29T13:14:08.810Z,1236
2017-07-29T13:15:08.867Z,1132
2017-07-29T13:16:08.926Z,1004
2017-07-29T13:17:08.366Z,920
2017-07-29T13:18:09.033Z,840
2017-07-29T13:19:08.778Z,804
2017-07-29T13:20:09.137Z,808
2017-07-29T13:21:09.204Z,780
2017-07-29T13:22:09.272Z,736
2017-07-29T13:23:09.007Z,680
2017-07-29T13:24:09.355Z,640
2017-07-29T13:25:09.421Z,624
2017-07-29T13:26:09.480Z,612
2017-07-29T13:27:09.526Z,592
2017-07-29T13:28:09.585Z,572
2017-07-29T13:29:09.647Z,556
2017-07-29T13:30:09.392Z,552
2017-07-29T13:31:09.451Z,548
2017-07-29T13:32:09.504Z,540
2017-07-29T13:33:09.557Z,524
2017-07-29T13:34:09.613Z,500
2017-07-29T13:35:09.663Z,488
2017-07-29T13:36:09.725Z,448
2017-07-29T13:37:10.094Z,444
2017-07-29T13:38:09.835Z,432
2017-07-29T13:39:10.208Z,432
2017-07-29T13:40:09.942Z,424
2017-07-29T13:41:10.313Z,416
2017-07-29T13:42:10.366Z,416
2017-07-29T13:43:10.425Z,420
2017-07-29T13:44:09.863Z,424
2017-07-29T13:45:10.530Z,436
2017-07-29T13:46:10.587Z,448
2017-07-29T13:47:10.030Z,464
2017-07-29T13:48:10.685Z,472
2017-07-29T13:49:10.751Z,496
2017-07-29T13:50:10.495Z,528
2017-07-29T13:51:10.554Z,608
2017-07-29T13:52:10.924Z,664
2017-07-29T13:53:10.664Z,696
2017-07-29T13:54:11.062Z,744
2017-07-29T13:55:10.775Z,788
2017-07-29T13:56:11.148Z,844
2017-07-29T13:57:11.190Z,928
2017-07-29T13:58:10.641Z,968